Time;durP1;ratioP1;P1;durP2;ratioP2;P2;SDS_P1;SDS_P2;PMS_P1;PMS_P2;Temp;Humidity;BMP_temperature;BMP_pressure;BME280_temperature;BME280_humidity;BME280_pressure;Samples;Min_cycle;Max_cycle;Signal;HPM_P1;HPM_P2
2022/07/20 00:00:35;;;;;;;20.40;6.15;;;;;;;26.17;36.49;101137.84;4989557;28;20064;-52
2022/07/20 00:03:14;;;;;;;22.88;6.28;;;;;;;26.12;36.60;101138.63;4976347;28;20026;-52
2022/07/20 00:05:40;;;;;;;13.15;5.93;;;;;;;26.10;37.06;101142.72;4982696;28;20034;-52
2022/07/20 00:08:08;;;;;;;20.60;6.00;;;;;;;26.06;36.86;101145.13;4986255;28;20519;-52
2022/07/20 00:13:18;;;;;;;15.68;6.28;;;;;;;25.96;37.85;101136.81;4998372;28;20353;-51
2022/07/20 00:15:44;;;;;;;12.10;6.05;;;;;;;25.91;37.95;101140.28;4998739;28;20026;-52
2022/07/20 00:18:09;;;;;;;17.35;6.03;;;;;;;25.86;40.80;101143.78;4998396;28;20057;-51
2022/07/20 00:20:35;;;;;;;13.13;6.07;;;;;;;25.82;39.92;101144.56;4999262;28;20022;-51
2022/07/20 00:23:01;;;;;;;20.50;6.68;;;;;;;25.77;39.08;101150.00;4999360;28;20025;-51
2022/07/20 00:25:26;;;;;;;13.63;6.20;;;;;;;25.76;40.12;101140.13;4996750;28;20036;-52
2022/07/20 00:27:52;;;;;;;22.38;6.50;;;;;;;25.73;38.72;101146.94;4991545;28;20663;-52
2022/07/20 00:30:17;;;;;;;15.45;6.30;;;;;;;25.69;39.07;101141.13;4986074;28;20512;-51
2022/07/20 00:32:43;;;;;;;16.90;5.88;;;;;;;25.66;39.28;101143.53;4997435;28;20022;-51
2022/07/20 00:35:11;;;;;;;17.80;5.97;;;;;;;25.60;40.32;101142.66;4979630;28;20552;-51
2022/07/20 00:37:37;;;;;;;20.25;6.55;;;;;;;25.58;39.87;101135.81;4989320;28;20240;-52
2022/07/20 00:40:04;;;;;;;14.40;6.05;;;;;;;25.55;40.93;101144.53;4991871;28;20069;-52
2022/07/20 00:42:30;;;;;;;14.27;5.88;;;;;;;25.53;38.15;101136.56;4993296;28;20022;-49
2022/07/20 00:44:55;;;;;;;17.45;6.60;;;;;;;25.45;39.46;101145.22;4990804;28;20097;-51
2022/07/20 00:47:20;;;;;;;27.30;6.43;;;;;;;25.35;38.51;101150.53;4997037;28;20489;-52
2022/07/20 00:49:45;;;;;;;18.70;6.80;;;;;;;25.20;39.51;101205.78;4980356;28;20489;-51
2022/07/20 00:52:11;;;;;;;14.27;6.20;;;;;;;25.07;40.28;101144.94;4995623;28;20030;-52
2022/07/20 00:54:38;;;;;;;16.73;6.63;;;;;;;25.05;39.45;101130.69;4985888;28;20020;-52
2022/07/20 00:57:04;;;;;;;17.98;6.13;;;;;;;25.09;39.53;101142.78;4996893;28;20034;-50
2022/07/20 00:59:30;;;;;;;15.50;6.05;;;;;;;25.13;39.17;101152.09;4979805;28;20034;-52
2022/07/20 01:01:55;;;;;;;22.58;6.20;;;;;;;25.17;37.99;101165.28;4976475;28;20092;-50
2022/07/20 01:04:21;;;;;;;22.88;6.18;;;;;;;25.20;38.30;101153.84;4984799;28;20086;-51
2022/07/20 01:06:47;;;;;;;10.93;6.00;;;;;;;25.16;38.95;101161.72;4997396;28;20044;-50
2022/07/20 01:09:12;;;;;;;12.75;6.00;;;;;;;25.15;38.39;101173.72;4996718;28;20036;-52
2022/07/20 01:11:37;;;;;;;15.77;5.85;;;;;;;25.08;38.94;101181.28;4992836;28;20034;-49
2022/07/20 01:14:05;;;;;;;12.25;6.43;;;;;;;25.07;38.86;101152.31;4983372;28;20029;-49
2022/07/20 01:16:31;;;;;;;19.45;6.38;;;;;;;25.02;39.21;101182.31;4996703;28;20608;-50
2022/07/20 01:18:56;;;;;;;16.73;5.88;;;;;;;25.01;39.51;101161.50;4988614;28;20549;-52
2022/07/20 01:21:22;;;;;;;16.30;6.18;;;;;;;24.93;39.64;101173.66;4994761;28;20084;-52
2022/07/20 01:23:47;;;;;;;14.98;5.85;;;;;;;24.84;40.44;101165.06;4997176;28;20026;-51
2022/07/20 01:26:16;;;;;;;17.77;6.15;;;;;;;24.88;41.32;101155.31;4996638;28;20262;-50
2022/07/20 01:28:41;;;;;;;14.95;5.72;;;;;;;24.77;40.70;101169.88;4996506;28;20472;-50
2022/07/20 01:31:07;;;;;;;12.13;6.18;;;;;;;24.79;41.21;101158.69;4997131;28;20191;-51
2022/07/20 01:33:32;;;;;;;11.77;5.75;;;;;;;24.72;40.62;101170.59;4997319;28;20026;-51
2022/07/20 01:35:57;;;;;;;21.40;6.23;;;;;;;24.69;42.03;101167.53;4989517;28;20044;-50
2022/07/20 01:38:23;;;;;;;22.30;5.95;;;;;;;24.58;41.61;101170.09;4981713;28;20637;-50
2022/07/20 01:40:48;;;;;;;20.45;6.10;;;;;;;24.46;42.66;101157.59;4995764;28;20028;-51
2022/07/20 01:43:13;;;;;;;18.60;6.15;;;;;;;24.47;42.82;101146.38;4988903;28;20448;-50
2022/07/20 01:45:39;;;;;;;18.45;6.20;;;;;;;24.44;42.24;101141.44;4991318;28;20429;-50
2022/07/20 01:48:05;;;;;;;14.35;6.60;;;;;;;24.36;42.18;101142.66;4980993;28;20489;-51
2022/07/20 01:50:31;;;;;;;17.75;5.75;;;;;;;24.33;43.06;101143.16;4979964;28;20102;-50
2022/07/20 01:52:56;;;;;;;27.88;6.38;;;;;;;24.36;42.34;101144.56;4990073;28;20018;-49
2022/07/20 01:55:22;;;;;;;19.02;6.13;;;;;;;24.33;43.75;101145.06;4991736;28;20500;-51
2022/07/20 01:57:47;;;;;;;26.15;6.63;;;;;;;24.27;42.95;101149.63;4996259;28;20113;-52
2022/07/20 02:00:13;;;;;;;12.68;6.10;;;;;;;24.23;44.49;101142.97;4996583;28;20113;-50
2022/07/20 02:02:40;;;;;;;20.75;6.30;;;;;;;24.23;42.86;101153.06;4996742;28;20037;-50
2022/07/20 02:05:06;;;;;;;16.75;6.38;;;;;;;24.15;43.40;101163.31;4996366;28;20049;-51
2022/07/20 02:07:31;;;;;;;16.60;6.55;;;;;;;24.14;43.32;101163.56;4997229;28;20025;-51
2022/07/20 02:09:57;;;;;;;20.73;6.63;;;;;;;24.04;42.65;101166.91;4984012;28;20041;-50
2022/07/20 02:12:22;;;;;;;23.25;6.72;;;;;;;23.92;43.27;101194.22;4976038;28;20026;-51
2022/07/20 02:14:47;;;;;;;18.40;6.80;;;;;;;23.85;43.25;101209.91;4981224;28;20032;-50
2022/07/20 02:17:12;;;;;;;19.42;7.20;;;;;;;23.75;42.89;101199.59;4988621;28;20045;-52
2022/07/20 02:19:38;;;;;;;20.13;6.93;;;;;;;23.70;43.52;101202.19;4986712;28;20477;-52
2022/07/20 02:22:03;;;;;;;19.15;7.25;;;;;;;23.63;43.90;101213.25;4976937;28;20042;-51
2022/07/20 02:24:28;;;;;;;19.35;7.25;;;;;;;23.53;44.38;101207.56;4992220;28;20021;-52
2022/07/20 02:26:54;;;;;;;14.38;7.32;;;;;;;23.46;43.89;101199.50;4994665;28;20025;-52
2022/07/20 02:29:19;;;;;;;21.10;7.22;;;;;;;23.54;44.34;101192.88;4995916;28;20040;-50
2022/07/20 02:31:44;;;;;;;18.08;7.57;;;;;;;23.50;44.65;101199.03;4995212;28;20119;-50
2022/07/20 02:34:10;;;;;;;30.98;8.70;;;;;;;23.54;44.49;101202.94;4996401;28;20380;-51
2022/07/20 02:36:35;;;;;;;18.73;8.80;;;;;;;23.56;44.74;101204.38;4996145;28;20025;-51
2022/07/20 02:39:00;;;;;;;24.17;9.38;;;;;;;23.55;45.38;101201.88;4996415;28;20029;-50
2022/07/20 02:41:26;;;;;;;30.80;9.85;;;;;;;23.55;45.97;101199.16;4995617;28;20045;-51
2022/07/20 02:43:51;;;;;;;30.58;11.27;;;;;;;23.58;47.11;101195.94;4992663;28;20148;-50
2022/07/20 02:46:16;;;;;;;27.08;11.25;;;;;;;23.52;47.83;101200.44;4988555;28;20037;-50
2022/07/20 02:48:41;;;;;;;28.17;11.50;;;;;;;23.52;48.52;101200.44;4990048;28;20021;-51
2022/07/20 02:51:07;;;;;;;37.25;12.60;;;;;;;23.50;49.54;101218.13;4993300;28;20026;-48
2022/07/20 02:53:32;;;;;;;30.77;13.85;;;;;;;23.45;50.10;101211.47;4992304;28;20031;-51
2022/07/20 02:55:57;;;;;;;31.30;14.40;;;;;;;23.43;50.99;101213.59;4981511;28;20112;-49
2022/07/20 02:58:23;;;;;;;33.50;14.73;;;;;;;23.37;51.41;101203.69;4979335;28;20045;-51
2022/07/20 03:00:48;;;;;;;26.42;13.77;;;;;;;23.34;51.65;101198.69;4990242;28;20092;-50
2022/07/20 03:03:14;;;;;;;27.48;13.82;;;;;;;23.31;51.81;101199.16;4976155;28;20460;-52
2022/07/20 03:05:39;;;;;;;37.53;13.85;;;;;;;23.32;51.56;101208.16;4989798;28;20026;-51
2022/07/20 03:08:06;;;;;;;33.38;13.27;;;;;;;23.23;51.39;101210.41;4995670;28;20040;-47
2022/07/20 03:10:31;;;;;;;29.77;12.60;;;;;;;23.16;51.58;101218.69;4995607;28;20018;-49
2022/07/20 03:12:57;;;;;;;24.85;11.82;;;;;;;23.05;51.49;101222.22;4995445;28;20546;-51
2022/07/20 03:15:22;;;;;;;29.40;12.50;;;;;;;22.99;54.75;101218.53;4977257;28;20053;-50
2022/07/20 03:17:50;;;;;;;32.53;14.30;;;;;;;22.83;57.17;101209.16;4981610;28;20010;-51
2022/07/20 03:20:26;;;;;;;29.90;14.60;;;;;;;22.79;55.39;101210.69;4995751;28;20342;-49
2022/07/20 03:22:52;;;;;;;32.33;16.20;;;;;;;22.73;56.83;101215.19;4994193;28;20022;-51
2022/07/20 03:25:18;;;;;;;36.50;16.85;;;;;;;22.69;57.36;101218.59;4986436;28;20038;-50
2022/07/20 03:27:43;;;;;;;43.30;18.55;;;;;;;22.63;59.96;101217.63;4984596;28;20089;-51
2022/07/20 03:30:09;;;;;;;53.83;19.30;;;;;;;22.54;62.78;101221.78;4989368;28;20149;-50
2022/07/20 03:32:35;;;;;;;45.10;18.88;;;;;;;22.56;60.71;101230.53;4988598;28;20068;-51
2022/07/20 03:35:01;;;;;;;44.75;19.08;;;;;;;22.54;61.32;101225.31;4977314;28;20056;-51
2022/07/20 03:37:26;;;;;;;42.05;20.15;;;;;;;22.50;62.51;101239.59;4985870;28;20518;-51
2022/07/20 03:39:51;;;;;;;52.28;19.70;;;;;;;22.51;62.45;101239.38;4996763;28;20017;-52
2022/07/20 03:42:17;;;;;;;45.33;20.75;;;;;;;22.43;63.72;101245.13;4998972;28;20022;-52
2022/07/20 03:44:42;;;;;;;40.67;21.77;;;;;;;22.37;64.65;101248.81;4999642;28;20538;-51
2022/07/20 03:47:07;;;;;;;47.33;22.20;;;;;;;22.30;65.33;101257.06;4998640;28;20709;-51
2022/07/20 03:49:33;;;;;;;47.92;22.23;;;;;;;22.26;66.20;101266.69;5000266;28;20032;-51
2022/07/20 03:51:58;;;;;;;45.03;23.55;;;;;;;22.22;68.21;101267.38;4983933;28;20315;-52
2022/07/20 03:54:23;;;;;;;40.78;23.98;;;;;;;22.17;68.96;101268.88;4979811;28;20038;-49
2022/07/20 03:56:49;;;;;;;60.00;24.98;;;;;;;22.15;70.74;101278.34;4977596;28;20476;-50
2022/07/20 03:59:14;;;;;;;47.80;26.17;;;;;;;22.04;72.11;101287.25;4979815;28;20018;-50
2022/07/20 04:01:40;;;;;;;57.47;27.75;;;;;;;21.98;74.90;101297.16;4963844;28;20026;-52
2022/07/20 04:04:05;;;;;;;54.88;28.08;;;;;;;21.88;76.79;101300.41;4965274;28;20121;-51
2022/07/20 04:06:31;;;;;;;57.03;30.70;;;;;;;21.88;77.99;101307.72;4981182;28;20022;-49
2022/07/20 04:08:56;;;;;;;56.70;31.70;;;;;;;21.90;79.44;101311.88;4980625;28;20022;-51
2022/07/20 04:11:23;;;;;;;61.47;31.88;;;;;;;21.96;79.50;101310.13;4980197;28;20492;-52
2022/07/20 04:13:48;;;;;;;69.38;31.60;;;;;;;21.95;80.83;101312.03;4983499;28;20080;-49
2022/07/20 04:16:14;;;;;;;75.10;33.03;;;;;;;22.01;80.78;101317.63;4963394;28;20457;-49
2022/07/20 04:18:39;;;;;;;75.25;34.22;;;;;;;21.97;81.77;101320.78;4989393;28;20036;-50
2022/07/20 04:21:05;;;;;;;65.50;34.67;;;;;;;22.01;82.69;101318.44;4970168;28;20038;-50
2022/07/20 04:23:30;;;;;;;63.42;35.15;;;;;;;22.05;82.68;101319.69;4991978;28;20076;-47
2022/07/20 04:25:55;;;;;;;69.53;35.95;;;;;;;22.07;82.92;101328.44;4995911;28;20037;-54
2022/07/20 04:28:21;;;;;;;74.15;35.80;;;;;;;22.17;83.02;101319.75;4997269;28;20029;-51
2022/07/20 04:30:46;;;;;;;66.80;34.78;;;;;;;22.21;82.95;101325.56;4997724;28;20520;-51
2022/07/20 04:33:11;;;;;;;63.25;35.53;;;;;;;22.34;82.69;101330.91;4995409;28;20010;-52
2022/07/20 04:35:36;;;;;;;64.57;35.08;;;;;;;22.47;82.16;101341.63;4981695;28;20015;-50
2022/07/20 04:38:02;;;;;;;65.03;35.25;;;;;;;22.50;81.83;101329.44;4982069;28;20323;-50
2022/07/20 04:40:28;;;;;;;63.63;35.28;;;;;;;22.51;81.75;101333.81;4978146;28;20045;-51
2022/07/20 04:42:53;;;;;;;64.63;35.63;;;;;;;22.55;81.73;101337.75;4977654;28;20022;-51
2022/07/20 04:45:18;;;;;;;69.45;34.67;;;;;;;22.62;81.71;101338.47;4982056;28;20049;-50
2022/07/20 04:47:44;;;;;;;63.50;33.67;;;;;;;22.68;81.33;101342.19;4979562;28;20088;-50
2022/07/20 04:50:09;;;;;;;66.07;34.08;;;;;;;22.69;81.15;101341.13;4979466;28;20165;-51
2022/07/20 04:52:34;;;;;;;61.00;33.67;;;;;;;22.71;81.05;101355.34;4980704;28;20105;-52
2022/07/20 04:55:00;;;;;;;67.38;34.30;;;;;;;22.71;81.17;101368.97;4963092;28;20030;-50
2022/07/20 04:57:25;;;;;;;57.13;33.00;;;;;;;22.76;81.38;101365.53;4984846;28;20161;-49
2022/07/20 04:59:50;;;;;;;81.97;34.70;;;;;;;22.81;80.58;101362.94;4990870;28;20036;-51
2022/07/20 05:02:16;;;;;;;57.72;33.35;;;;;;;22.81;80.14;101358.34;4983333;28;20037;-48
2022/07/20 05:04:41;;;;;;;56.75;31.25;;;;;;;22.84;79.67;101359.78;4983282;28;20027;-49
2022/07/20 05:07:06;;;;;;;61.85;31.38;;;;;;;22.85;79.85;101356.81;4981777;28;20041;-47
2022/07/20 05:09:32;;;;;;;65.93;32.08;;;;;;;22.86;79.59;101360.38;4988016;28;20029;-50
2022/07/20 05:11:57;;;;;;;59.88;31.55;;;;;;;22.86;79.29;101361.22;4995439;28;20620;-52
2022/07/20 05:14:22;;;;;;;67.13;31.80;;;;;;;22.85;80.08;101359.53;4992450;28;20044;-49
2022/07/20 05:16:48;;;;;;;60.78;30.83;;;;;;;22.82;79.69;101360.00;4996778;28;20025;-48
2022/07/20 05:19:13;;;;;;;55.50;31.90;;;;;;;22.76;79.92;101350.06;4997374;28;20025;-51
2022/07/20 05:21:38;;;;;;;58.28;31.20;;;;;;;22.77;80.04;101354.41;4988684;28;20128;-50
2022/07/20 05:24:04;;;;;;;63.88;31.10;;;;;;;22.88;79.37;101353.66;4993274;28;20032;-47
2022/07/20 05:26:29;;;;;;;58.00;30.95;;;;;;;22.90;79.70;101362.41;4992924;28;20036;-51
2022/07/20 05:28:55;;;;;;;55.80;31.13;;;;;;;22.85;79.81;101359.53;4996248;28;20328;-51
2022/07/20 05:31:20;;;;;;;62.85;31.20;;;;;;;22.83;80.15;101371.75;4996343;28;20056;-50
2022/07/20 05:33:45;;;;;;;59.13;31.35;;;;;;;22.82;80.73;101379.06;4995824;28;20026;-50
2022/07/20 05:36:13;;;;;;;70.00;32.88;;;;;;;22.79;81.28;101392.31;4991537;28;20022;-49
2022/07/20 05:38:38;;;;;;;64.05;32.03;;;;;;;22.73;81.92;101402.25;4988983;28;20028;-51
2022/07/20 05:41:03;;;;;;;58.00;32.20;;;;;;;22.71;82.74;101396.19;4988453;28;20057;-48
2022/07/20 05:43:29;;;;;;;53.58;32.40;;;;;;;22.64;82.79;101399.00;4991492;28;20026;-50
2022/07/20 05:45:54;;;;;;;63.58;32.38;;;;;;;22.62;83.69;101408.44;4996107;28;20029;-49
2022/07/20 05:48:19;;;;;;;56.88;31.48;;;;;;;22.59;84.15;101417.91;4995331;28;20018;-49
2022/07/20 05:50:45;;;;;;;56.92;32.30;;;;;;;22.58;83.76;101423.59;4995171;28;20300;-51
2022/07/20 05:53:12;;;;;;;62.75;32.05;;;;;;;22.60;84.54;101437.78;4978779;28;20378;-51
2022/07/20 05:55:38;;;;;;;65.15;31.75;;;;;;;22.63;83.56;101440.06;4983352;28;20111;-49
2022/07/20 05:58:07;;;;;;;49.17;29.95;;;;;;;22.77;82.87;101436.09;4987314;28;20432;-50
2022/07/20 06:00:33;;;;;;;49.22;29.92;;;;;;;22.82;82.00;101443.59;4991682;28;20383;-50
2022/07/20 06:02:59;;;;;;;56.40;28.90;;;;;;;22.91;81.38;101453.97;4986986;28;20037;-50
2022/07/20 06:05:25;;;;;;;56.92;28.58;;;;;;;23.08;81.66;101458.81;4996657;28;20091;-51
2022/07/20 06:07:53;;;;;;;54.95;26.52;;;;;;;23.28;78.97;101461.25;4985178;28;20030;-49
2022/07/20 06:10:19;;;;;;;57.00;27.20;;;;;;;23.45;77.42;101477.81;4995120;28;20022;-51
2022/07/20 06:12:44;;;;;;;49.40;25.70;;;;;;;23.48;76.80;101474.63;4995979;28;20164;-51
2022/07/20 06:15:10;;;;;;;46.13;24.60;;;;;;;23.55;76.60;101493.59;4993965;28;20064;-50
2022/07/20 06:17:37;;;;;;;44.97;23.40;;;;;;;23.54;74.92;101487.34;4973738;28;20030;-50
2022/07/20 06:20:11;;;;;;;42.03;22.55;;;;;;;23.62;73.97;101492.44;4996532;28;20029;-50
2022/07/20 06:22:38;;;;;;;43.42;23.20;;;;;;;23.69;74.30;101496.97;4991590;28;20049;-47
2022/07/20 06:25:05;;;;;;;41.00;21.08;;;;;;;23.73;72.21;101507.19;4997429;28;20098;-48
2022/07/20 06:27:30;;;;;;;39.80;20.55;;;;;;;23.75;72.32;101504.22;4986052;28;20057;-51
2022/07/20 06:29:57;;;;;;;42.35;21.00;;;;;;;23.90;72.44;101507.38;4994082;28;20071;-48
2022/07/20 06:32:22;;;;;;;45.13;19.45;;;;;;;24.01;70.46;101512.00;4986830;28;20041;-52
2022/07/20 06:34:47;;;;;;;35.97;18.30;;;;;;;23.91;70.71;101524.56;4996818;28;20014;-51
2022/07/20 06:37:13;;;;;;;41.38;19.58;;;;;;;23.84;70.27;101522.75;4991674;28;20026;-51
2022/07/20 06:39:38;;;;;;;36.90;18.13;;;;;;;23.92;70.42;101534.44;4979729;28;20034;-50
2022/07/20 06:42:03;;;;;;;42.78;18.30;;;;;;;23.93;70.17;101545.09;4977226;28;20034;-50
2022/07/20 06:44:28;;;;;;;40.17;18.33;;;;;;;23.90;70.24;101547.47;4996513;28;20310;-50
2022/07/20 06:46:54;;;;;;;42.10;17.67;;;;;;;23.86;70.73;101558.00;4980462;28;20098;-50
2022/07/20 06:49:19;;;;;;;36.47;16.40;;;;;;;23.81;71.24;101566.91;4978100;28;20394;-50
2022/07/20 06:51:44;;;;;;;41.28;16.85;;;;;;;23.73;71.35;101567.19;4988969;28;20065;-51
2022/07/20 06:54:10;;;;;;;38.03;17.25;;;;;;;23.72;71.70;101579.16;4995508;28;20030;-48
2022/07/20 06:56:35;;;;;;;37.42;17.15;;;;;;;23.74;71.59;101574.28;4994416;28;20040;-50
2022/07/20 06:59:00;;;;;;;36.53;16.85;;;;;;;23.83;72.38;101577.56;4995869;28;20025;-47
2022/07/20 07:01:26;;;;;;;30.92;16.80;;;;;;;23.89;72.25;101584.00;4991623;28;20025;-47
2022/07/20 07:03:51;;;;;;;37.42;17.23;;;;;;;23.88;71.28;101587.78;4995476;28;20049;-49
2022/07/20 07:06:16;;;;;;;45.50;16.77;;;;;;;24.01;71.56;101580.22;4986145;28;20621;-49
2022/07/20 07:08:42;;;;;;;34.95;17.55;;;;;;;24.19;69.59;101586.69;4973882;28;20362;-50
2022/07/20 07:11:07;;;;;;;31.67;17.27;;;;;;;24.23;69.49;101587.06;4989058;28;20048;-49
2022/07/20 07:13:33;;;;;;;35.72;16.50;;;;;;;24.12;69.51;101592.25;4998023;28;20021;-50
2022/07/20 07:15:58;;;;;;;35.55;16.73;;;;;;;24.04;70.68;101595.31;4987158;28;20026;-50
2022/07/20 07:18:23;;;;;;;45.65;18.58;;;;;;;24.01;71.69;101601.22;4991335;28;20109;-48
2022/07/20 07:20:49;;;;;;;34.55;18.05;;;;;;;24.05;69.89;101598.84;5000486;28;20092;-50
2022/07/20 07:23:14;;;;;;;41.85;19.02;;;;;;;24.09;70.16;101586.44;4985708;28;20026;-46
2022/07/20 07:25:39;;;;;;;37.20;18.20;;;;;;;24.11;70.12;101595.22;4998517;28;20030;-49
2022/07/20 07:28:05;;;;;;;35.05;17.50;;;;;;;24.28;69.17;101593.47;4997345;28;20026;-51
2022/07/20 07:30:30;;;;;;;42.92;18.08;;;;;;;24.31;68.26;101603.09;4999489;28;20050;-50
2022/07/20 07:32:55;;;;;;;35.80;17.52;;;;;;;24.57;69.31;101593.66;4999308;28;20488;-49
2022/07/20 07:35:20;;;;;;;42.88;18.23;;;;;;;24.84;67.64;101609.56;4996603;28;20030;-51
2022/07/20 07:37:46;;;;;;;33.05;17.20;;;;;;;25.05;65.53;101621.78;4993559;28;20373;-47
2022/07/20 07:40:11;;;;;;;35.42;16.52;;;;;;;25.16;65.05;101622.88;4996198;28;20093;-50
2022/07/20 07:42:37;;;;;;;31.67;16.83;;;;;;;25.30;65.12;101630.56;4989834;28;20028;-53
2022/07/20 07:45:06;;;;;;;34.63;16.50;;;;;;;25.16;65.50;101645.56;4998194;28;20041;-46
2022/07/20 07:47:32;;;;;;;31.10;15.68;;;;;;;24.92;64.96;101650.22;4993462;28;20228;-49
2022/07/20 07:49:57;;;;;;;37.17;16.88;;;;;;;24.88;64.62;101649.00;4991587;28;20040;-51
2022/07/20 07:52:22;;;;;;;38.08;16.63;;;;;;;24.85;65.68;101650.31;4999190;28;20030;-48
2022/07/20 07:54:47;;;;;;;34.08;16.73;;;;;;;25.03;66.91;101656.72;4998291;28;20089;-51
2022/07/20 07:57:13;;;;;;;38.08;16.77;;;;;;;25.15;65.31;101657.53;4979838;28;20042;-51
2022/07/20 07:59:38;;;;;;;35.60;16.63;;;;;;;25.25;63.60;101656.94;4999235;28;20555;-51
2022/07/20 08:02:04;;;;;;;28.73;15.82;;;;;;;25.24;64.12;101647.94;4998426;28;20022;-49
2022/07/20 08:04:29;;;;;;;39.10;16.38;;;;;;;25.37;63.80;101656.97;4988533;28;20473;-50
2022/07/20 08:06:54;;;;;;;35.33;16.17;;;;;;;25.45;63.22;101651.13;4979078;28;20055;-50
2022/07/20 08:09:20;;;;;;;35.28;15.85;;;;;;;25.65;61.81;101645.25;4980990;28;20018;-48
2022/07/20 08:11:46;;;;;;;33.65;16.10;;;;;;;25.78;60.91;101636.75;4978225;28;20207;-52
2022/07/20 08:14:12;;;;;;;33.80;14.80;;;;;;;25.90;62.29;101641.34;4988193;28;20030;-52
2022/07/20 08:16:37;;;;;;;28.10;14.68;;;;;;;26.08;58.91;101634.88;4978616;28;20041;-51
2022/07/20 08:19:03;;;;;;;36.22;15.10;;;;;;;26.15;58.67;101621.84;4979249;28;20027;-50
2022/07/20 08:21:28;;;;;;;32.70;14.38;;;;;;;26.29;59.12;101631.44;4988090;28;20041;-49
2022/07/20 08:23:53;;;;;;;30.50;13.93;;;;;;;26.34;56.93;101622.44;4997891;28;20099;-48
2022/07/20 08:26:19;;;;;;;27.17;14.27;;;;;;;26.21;56.93;101616.22;4983455;28;20018;-51
2022/07/20 08:28:44;;;;;;;28.15;14.02;;;;;;;26.23;56.80;101621.47;4982793;28;20034;-49
2022/07/20 08:31:09;;;;;;;28.98;13.68;;;;;;;26.43;56.46;101605.38;4978985;28;20390;-51
2022/07/20 08:33:35;;;;;;;36.15;14.50;;;;;;;26.46;56.00;101625.13;4985051;28;20105;-52
2022/07/20 08:36:00;;;;;;;41.75;15.00;;;;;;;26.34;55.26;101634.25;4995705;28;20459;-49
2022/07/20 08:38:25;;;;;;;33.50;13.68;;;;;;;26.32;56.39;101641.88;4979858;28;20037;-50
2022/07/20 08:40:51;;;;;;;31.08;14.27;;;;;;;26.47;56.78;101645.97;4985908;28;20018;-47
2022/07/20 08:43:17;;;;;;;27.10;15.15;;;;;;;26.69;56.82;101651.56;4997786;28;20029;-51
2022/07/20 08:45:43;;;;;;;29.60;13.48;;;;;;;26.68;54.73;101667.16;4979601;28;20057;-46
2022/07/20 08:48:11;;;;;;;38.13;17.02;;;;;;;26.56;54.00;101669.97;4984096;28;20106;-49
2022/07/20 08:50:37;;;;;;;29.77;13.82;;;;;;;26.54;54.95;101666.63;4981467;28;20028;-49
2022/07/20 08:53:03;;;;;;;27.73;14.45;;;;;;;26.80;55.54;101661.59;4986603;28;20109;-50
2022/07/20 08:55:30;;;;;;;30.00;14.40;;;;;;;26.89;54.59;101668.31;4997026;28;20172;-50
2022/07/20 08:57:55;;;;;;;32.08;13.90;;;;;;;27.09;55.21;101656.00;4997136;28;20029;-50
2022/07/20 09:00:21;;;;;;;24.90;13.10;;;;;;;26.98;51.83;101646.78;4997781;28;20032;-49
2022/07/20 09:02:49;;;;;;;26.98;14.05;;;;;;;26.96;52.91;101643.47;4997519;28;20515;-51
2022/07/20 09:05:14;;;;;;;28.25;13.70;;;;;;;27.32;54.29;101633.84;4997552;28;20018;-51
2022/07/20 09:07:42;;;;;;;24.90;13.45;;;;;;;27.50;51.88;101638.19;4987909;28;20034;-51
2022/07/20 09:10:11;;;;;;;27.25;13.45;;;;;;;27.69;53.00;101624.97;4985153;28;20046;-51
2022/07/20 09:13:01;;;;;;;27.33;13.65;;;;;;;27.88;52.03;101619.13;4989730;28;20026;-48
2022/07/20 09:15:29;;;;;;;32.13;13.18;;;;;;;28.01;49.47;101631.66;4969534;28;20022;-51
2022/07/20 09:18:20;;;;;;;26.13;14.38;;;;;;;28.07;51.24;101650.66;4996606;28;20121;-50
2022/07/20 09:20:53;;;;;;;29.10;14.10;;;;;;;28.18;49.92;101665.31;4992146;28;20053;-50
2022/07/20 09:23:23;;;;;;;25.67;13.27;;;;;;;28.09;51.23;101659.47;4989168;28;20618;-49
2022/07/20 09:25:49;;;;;;;31.17;14.93;;;;;;;28.12;51.11;101662.78;4993289;28;20124;-50
2022/07/20 09:28:14;;;;;;;27.07;13.60;;;;;;;28.31;51.00;101687.94;4915092;28;20018;-51
2022/07/20 09:30:40;;;;;;;32.10;13.97;;;;;;;28.54;50.16;101726.09;4926667;28;20407;-51
2022/07/20 09:33:05;;;;;;;31.33;13.68;;;;;;;28.49;48.73;101728.78;4983364;28;20276;-48
2022/07/20 09:35:33;;;;;;;26.42;13.68;;;;;;;28.49;49.04;101726.03;4912622;28;20069;-50
2022/07/20 09:38:01;;;;;;;30.25;14.10;;;;;;;28.32;49.43;101730.84;4981008;28;20098;-49
2022/07/20 09:40:28;;;;;;;26.67;13.85;;;;;;;28.24;50.17;101727.47;4981601;28;20714;-51
2022/07/20 09:42:53;;;;;;;27.50;14.20;;;;;;;28.21;50.60;101725.22;4989060;28;20038;-51
2022/07/20 09:45:20;;;;;;;26.50;14.05;;;;;;;28.25;51.96;101717.31;4995651;28;20034;-50
2022/07/20 09:48:08;;;;;;;24.15;12.68;;;;;;;28.52;49.49;101703.56;4981178;28;20034;-51
2022/07/20 09:50:36;;;;;;;26.55;12.98;;;;;;;28.42;50.84;101707.03;4999007;28;20028;-48
2022/07/20 09:53:02;;;;;;;25.20;13.18;;;;;;;28.33;50.51;101689.38;4997775;28;20036;-50
2022/07/20 09:55:27;;;;;;;25.52;12.75;;;;;;;28.22;49.01;101691.16;4991260;28;20026;-51
2022/07/20 09:58:03;;;;;;;23.15;13.23;;;;;;;28.36;49.83;101688.00;5077707;27;20405;-48
2022/07/20 10:00:29;;;;;;;19.17;12.35;;;;;;;28.61;49.63;101695.69;5075300;28;20181;-52
2022/07/20 10:02:58;;;;;;;20.13;11.82;;;;;;;28.88;48.81;101687.38;5060649;28;20074;-52
2022/07/20 10:05:24;;;;;;;26.67;12.23;;;;;;;28.89;47.46;101679.94;5059219;28;20098;-52
2022/07/20 10:07:50;;;;;;;24.58;11.93;;;;;;;29.16;47.11;101683.47;5059360;28;20478;-51
2022/07/20 10:10:15;;;;;;;22.33;11.68;;;;;;;29.36;47.00;101687.41;5071518;28;20129;-49
2022/07/20 10:12:41;;;;;;;24.05;11.38;;;;;;;29.47;44.91;101710.31;5072066;28;20575;-51
2022/07/20 10:15:18;;;;;;;24.70;10.32;;;;;;;29.50;46.46;101704.25;5071526;28;20040;-50
2022/07/20 10:17:45;;;;;;;19.17;10.75;;;;;;;29.58;45.17;101706.50;5059784;28;20013;-51
2022/07/20 10:20:29;;;;;;;21.35;9.35;;;;;;;29.56;44.39;101712.28;5057627;28;20675;-49
2022/07/20 10:23:16;;;;;;;15.63;8.68;;;;;;;29.39;44.32;101723.47;5060294;28;20060;-50
2022/07/20 10:25:46;;;;;;;18.85;8.50;;;;;;;29.34;44.69;101725.38;5073038;28;20781;-50
2022/07/20 10:28:23;;;;;;;15.98;9.27;;;;;;;29.18;44.07;101724.47;5067670;28;20036;-50
2022/07/20 10:30:52;;;;;;;15.88;9.60;;;;;;;29.14;45.42;101712.28;5066250;28;20565;-51
2022/07/20 10:33:19;;;;;;;17.10;9.38;;;;;;;29.35;45.80;101714.09;5067056;28;20028;-52
2022/07/20 10:35:47;;;;;;;19.25;10.00;;;;;;;29.33;45.14;101702.56;5070566;28;20020;-51
2022/07/20 10:38:18;;;;;;;20.52;9.60;;;;;;;29.29;45.24;101692.34;5075440;28;20028;-52
2022/07/20 10:44:26;;;;;;;22.00;9.70;;;;;;;29.11;45.71;101707.31;5073069;28;20035;-51
2022/07/20 10:46:52;;;;;;;19.33;9.40;;;;;;;29.11;45.25;101705.41;5066485;28;20052;-52
2022/07/20 10:49:17;;;;;;;20.92;9.00;;;;;;;29.44;45.77;101700.66;5072994;28;20062;-52
2022/07/20 10:51:42;;;;;;;18.80;9.20;;;;;;;29.51;45.29;101695.75;5072623;28;20165;-52
2022/07/20 10:54:36;;;;;;;18.98;9.52;;;;;;;29.34;44.62;101695.94;5071788;28;20031;-51
2022/07/20 10:57:02;;;;;;;24.02;9.32;;;;;;;29.38;45.94;101688.81;5074584;28;20335;-50
2022/07/20 10:59:28;;;;;;;17.75;8.60;;;;;;;29.56;45.11;101686.69;5072086;28;20110;-51
2022/07/20 11:01:54;;;;;;;16.88;8.43;;;;;;;29.68;44.39;101694.72;5072129;28;20032;-50
2022/07/20 11:04:21;;;;;;;16.05;8.45;;;;;;;29.93;44.07;101696.75;5077270;28;20493;-51
2022/07/20 11:06:47;;;;;;;15.60;8.63;;;;;;;30.14;42.72;101705.91;5073908;28;20082;-50
2022/07/20 11:09:12;;;;;;;16.10;8.13;;;;;;;30.36;41.77;101716.72;5057748;28;20029;-49
2022/07/20 11:11:38;;;;;;;17.63;8.68;;;;;;;30.58;41.54;101707.38;5057564;28;20275;-50
2022/07/20 11:14:06;;;;;;;17.15;8.43;;;;;;;30.71;41.50;101712.31;5058626;28;20095;-51